createdAt,value
2023-03-16T00:00:58.693Z,94533.25
2023-03-16T00:03:30.494Z,94529.69
2023-03-16T00:05:58.413Z,94525.63
2023-03-16T00:08:26.278Z,94488.88
2023-03-16T00:10:54.557Z,94430.97
2023-03-16T00:13:24.929Z,94368.03
2023-03-16T00:15:55.964Z,94378.22
2023-03-16T00:18:27.440Z,94380.00
2023-03-16T00:20:56.847Z,94352.19
2023-03-16T00:23:27.252Z,94363.66
2023-03-16T00:25:55.788Z,94356.56
2023-03-16T00:28:24.593Z,94336.19
2023-03-16T00:30:58.910Z,94321.63
2023-03-16T00:33:26.694Z,94344.59
2023-03-16T00:36:02.293Z,94365.44
2023-03-16T00:38:32.377Z,94392.47
2023-03-16T00:41:00.090Z,94383.91
2023-03-16T00:43:28.089Z,94392.47
2023-03-16T00:46:06.531Z,94410.91
2023-03-16T00:48:35.640Z,94391.34
2023-03-16T00:51:06.308Z,94329.22
2023-03-16T00:53:34.650Z,94249.88
2023-03-16T00:56:04.415Z,94219.53
2023-03-16T00:58:35.825Z,94165.91
2023-03-16T01:01:06.217Z,94130.84
2023-03-16T01:03:34.614Z,94086.63
2023-03-16T01:06:05.875Z,94060.31
2023-03-16T01:08:34.157Z,94129.06
2023-03-16T01:11:04.699Z,94140.03
2023-03-16T01:13:33.138Z,94139.88
2023-03-16T01:16:01.274Z,94130.84
2023-03-16T01:18:34.319Z,94077.44
2023-03-16T01:21:02.283Z,94033.03
2023-03-16T01:23:31.407Z,94046.41
2023-03-16T01:26:02.168Z,94084.69
2023-03-16T01:28:31.808Z,94114.22
2023-03-16T01:31:04.050Z,94132.94
2023-03-16T01:33:33.781Z,94180.13
2023-03-16T01:36:04.309Z,94206.75
2023-03-16T01:38:32.350Z,94226.75
2023-03-16T01:41:01.878Z,94221.13
2023-03-16T01:43:33.414Z,94204.34
2023-03-16T01:46:19.212Z,94191.91
2023-03-16T01:48:57.409Z,94202.09
2023-03-16T01:51:29.553Z,94196.91
2023-03-16T01:54:00.290Z,94196.91
2023-03-16T01:56:34.851Z,94194.66
2023-03-16T01:59:07.094Z,94185.94
2023-03-16T02:01:35.100Z,94189.97
2023-03-16T02:04:15.807Z,94202.72
2023-03-16T02:06:44.602Z,94211.13
2023-03-16T02:09:12.669Z,94215.16
2023-03-16T02:11:41.601Z,94226.31
2023-03-16T02:14:11.789Z,94254.72
2023-03-16T02:16:40.565Z,94233.72
2023-03-16T02:19:14.395Z,94216.94
2023-03-16T02:21:54.446Z,94217.91
2023-03-16T02:24:22.864Z,94198.69
2023-03-16T02:26:56.295Z,94181.09
2023-03-16T02:29:33.062Z,94174.63
2023-03-16T02:32:02.981Z,94197.56
2023-03-16T02:34:31.089Z,94214.34
2023-03-16T02:37:00.891Z,94198.53
2023-03-16T02:39:28.889Z,94188.50
2023-03-16T02:41:56.709Z,94173.34
2023-03-16T02:44:27.402Z,94157.47
2023-03-16T02:46:59.331Z,94133.25
2023-03-16T02:49:33.839Z,94072.25
2023-03-16T02:52:01.617Z,93998.66
2023-03-16T02:54:29.352Z,93930.25
2023-03-16T02:56:57.258Z,93889.31
2023-03-16T02:59:25.050Z,93849.66
2023-03-16T03:01:52.983Z,93846.44
2023-03-16T03:04:24.611Z,93814.84
2023-03-16T03:06:53.857Z,93770.06
2023-03-16T03:09:21.907Z,93737.84
2023-03-16T03:11:50.614Z,93721.41
2023-03-16T03:14:18.449Z,93695.31
2023-03-16T03:16:46.929Z,93709.47
2023-03-16T03:19:15.156Z,93696.75
2023-03-16T03:21:43.057Z,93772.94
2023-03-16T03:24:12.711Z,93825.63
2023-03-16T03:26:40.510Z,93814.84
2023-03-16T03:29:08.407Z,93800.31
2023-03-16T03:31:36.431Z,93783.75
2023-03-16T03:34:06.911Z,93773.59
2023-03-16T03:36:35.513Z,93757.00
2023-03-16T03:39:05.153Z,93786.50
2023-03-16T03:41:34.793Z,93812.25
2023-03-16T03:44:02.610Z,93810.66
2023-03-16T03:46:30.542Z,93781.31
2023-03-16T03:49:03.683Z,93741.06
2023-03-16T03:51:32.216Z,93772.94
2023-03-16T03:54:00.554Z,93761.34
2023-03-16T03:56:28.654Z,93738.66
2023-03-16T03:58:57.831Z,93731.84
2023-03-16T04:01:25.803Z,93692.56
2023-03-16T04:03:53.588Z,93664.41
2023-03-16T04:06:21.445Z,93629.28
2023-03-16T04:08:49.265Z,93595.19
2023-03-16T04:11:17.114Z,93562.34
2023-03-16T04:13:45.044Z,93568.47
2023-03-16T04:16:17.222Z,93581.03
2023-03-16T04:18:46.157Z,93584.06
2023-03-16T04:21:17.035Z,93591.63
2023-03-16T04:23:45.096Z,93595.81
2023-03-16T04:26:13.544Z,93578.16
2023-03-16T04:28:41.405Z,93563.31
2023-03-16T04:31:11.356Z,93571.69
2023-03-16T04:33:42.356Z,93575.06
2023-03-16T04:36:10.661Z,93559.13
2023-03-16T04:38:38.690Z,93540.00
2023-03-16T04:41:07.644Z,93528.25
2023-03-16T04:43:35.709Z,93526.47
2023-03-16T04:46:04.693Z,93525.19
2023-03-16T04:48:33.433Z,93509.09
2023-03-16T04:51:03.921Z,93502.50
2023-03-16T04:53:32.614Z,93476.63
2023-03-16T04:56:00.756Z,93504.09
2023-03-16T04:58:28.672Z,93528.44
2023-03-16T05:00:56.945Z,93513.28
2023-03-16T05:03:25.157Z,93494.94
2023-03-16T05:05:53.158Z,93445.31
2023-03-16T05:08:22.470Z,93459.25
2023-03-16T05:10:50.272Z,93454.28
2023-03-16T05:13:18.137Z,93468.59
2023-03-16T05:15:46.015Z,93450.72
2023-03-16T05:18:13.782Z,93440.78
2023-03-16T05:20:42.278Z,93429.53
2023-03-16T05:23:10.195Z,93455.53
2023-03-16T05:25:40.447Z,93456.84
2023-03-16T05:28:08.309Z,93479.03
2023-03-16T05:30:36.895Z,93489.78
2023-03-16T05:33:05.208Z,93508.28
2023-03-16T05:35:33.117Z,93524.06
2023-03-16T05:38:01.077Z,93567.50
2023-03-16T05:40:29.265Z,93644.09
2023-03-16T05:43:00.436Z,93701.56
2023-03-16T05:45:29.144Z,93775.81
2023-03-16T05:47:57.046Z,93849.66
2023-03-16T05:50:25.148Z,93887.03
2023-03-16T05:52:54.232Z,93923.97
2023-03-16T05:55:22.096Z,93977.34
2023-03-16T05:57:50.080Z,94048.38
2023-03-16T06:00:20.788Z,94132.28
2023-03-16T06:02:51.229Z,94294.47
2023-03-16T06:05:21.842Z,94461.22
2023-03-16T06:07:50.203Z,94714.03
2023-03-16T06:10:18.545Z,95010.09
2023-03-16T06:12:46.709Z,95310.47
2023-03-16T06:15:14.904Z,95569.00
2023-03-16T06:17:44.162Z,95707.53
2023-03-16T06:20:13.823Z,95742.44
2023-03-16T06:22:43.348Z,95702.66
2023-03-16T06:25:13.382Z,95622.25
2023-03-16T06:27:41.674Z,95508.06
2023-03-16T06:30:12.164Z,95446.66
2023-03-16T06:32:42.152Z,95376.50
2023-03-16T06:35:12.422Z,95376.81
2023-03-16T06:37:40.212Z,95456.75
2023-03-16T06:40:09.814Z,95619.00
2023-03-16T06:42:37.633Z,95766.09
2023-03-16T06:45:06.105Z,95885.41
2023-03-16T06:47:33.969Z,95864.19
2023-03-16T06:50:01.862Z,95811.63
2023-03-16T06:52:32.023Z,95780.91
2023-03-16T06:55:00.034Z,95827.94
2023-03-16T06:57:28.028Z,95889.66
2023-03-16T06:59:56.035Z,96011.63
2023-03-16T07:02:23.967Z,96106.44
2023-03-16T07:04:51.946Z,96322.72
2023-03-16T07:07:20.157Z,96549.44
2023-03-16T07:09:49.597Z,96644.16
2023-03-16T07:12:17.398Z,96743.63
2023-03-16T07:14:47.302Z,96960.72
2023-03-16T07:17:16.800Z,97190.94
2023-03-16T07:19:44.681Z,97451.47
2023-03-16T07:22:12.889Z,97563.44
2023-03-16T07:24:41.725Z,97658.31
2023-03-16T07:27:12.489Z,97819.41
2023-03-16T07:29:40.594Z,98042.22
2023-03-16T07:32:09.175Z,98186.53
2023-03-16T07:34:36.959Z,98523.53
2023-03-16T07:37:05.349Z,98732.00
2023-03-16T07:39:33.477Z,98749.25
2023-03-16T07:42:01.517Z,99004.50
2023-03-16T07:44:31.323Z,99077.88
2023-03-16T07:46:59.165Z,99195.50
2023-03-16T07:49:27.726Z,99088.34
2023-03-16T07:51:56.609Z,99005.59
2023-03-16T07:54:25.541Z,99125.81
2023-03-16T07:56:53.973Z,98980.53
2023-03-16T07:59:22.113Z,99060.94
2023-03-16T08:01:51.715Z,98999.47
2023-03-16T08:04:28.751Z,99041.13
2023-03-16T08:07:00.270Z,98876.38
2023-03-16T08:09:28.370Z,98686.81
2023-03-16T08:11:56.297Z,98715.22
2023-03-16T08:14:24.112Z,98609.41
2023-03-16T08:16:54.919Z,98448.66
2023-03-16T08:19:22.764Z,98374.47
2023-03-16T08:22:01.063Z,98617.78
2023-03-16T08:24:31.019Z,98970.41
2023-03-16T08:27:00.089Z,99262.56
2023-03-16T08:29:28.135Z,99443.97
2023-03-16T08:31:57.649Z,99921.34
2023-03-16T08:34:26.950Z,99935.13
2023-03-16T08:36:55.438Z,100290.66
2023-03-16T08:39:23.206Z,100327.16
2023-03-16T08:41:51.245Z,100333.31
2023-03-16T08:44:20.106Z,100598.09
2023-03-16T08:46:48.112Z,100629.38
2023-03-16T08:49:17.438Z,100991.28
2023-03-16T08:51:45.256Z,101287.66
2023-03-16T08:54:13.239Z,100980.31
2023-03-16T08:56:41.095Z,100872.81
2023-03-16T08:59:16.827Z,100587.16
2023-03-16T09:01:51.471Z,100862.38
2023-03-16T09:04:21.572Z,100761.09
2023-03-16T09:07:05.772Z,100686.06
2023-03-16T09:09:36.136Z,100530.16
2023-03-16T09:12:04.697Z,100734.19
2023-03-16T09:14:33.372Z,100874.50
2023-03-16T09:17:01.170Z,101016.03
2023-03-16T09:19:47.873Z,100814.31
2023-03-16T09:22:18.548Z,101131.34
2023-03-16T09:24:46.387Z,101051.00
2023-03-16T09:27:15.412Z,101179.44
2023-03-16T09:29:44.014Z,101118.22
2023-03-16T09:32:12.407Z,101469.06
2023-03-16T09:34:41.634Z,101512.22
2023-03-16T09:37:09.705Z,101078.19
2023-03-16T09:39:38.302Z,101480.59
2023-03-16T09:42:13.768Z,101225.00
2023-03-16T09:44:53.835Z,101447.25
2023-03-16T09:47:26.687Z,101298.44
2023-03-16T09:50:00.080Z,101695.16
2023-03-16T09:52:36.335Z,101836.44
2023-03-16T09:55:11.596Z,101604.81
2023-03-16T09:57:44.765Z,101872.50
2023-03-16T10:00:19.388Z,101671.56
2023-03-16T10:03:15.411Z,102064.78
2023-03-16T10:05:45.643Z,101934.78
2023-03-16T10:08:16.847Z,102123.63
2023-03-16T10:10:58.880Z,102579.63
2023-03-16T10:13:36.955Z,102685.41
2023-03-16T10:16:10.827Z,102535.56
2023-03-16T10:18:44.968Z,102896.19
2023-03-16T10:21:16.957Z,103182.56
2023-03-16T10:23:46.499Z,102975.66
2023-03-16T10:26:18.863Z,102903.38
2023-03-16T10:28:47.001Z,103020.72
2023-03-16T10:31:18.092Z,103125.88
2023-03-16T10:33:46.758Z,103137.31
2023-03-16T10:36:25.405Z,103344.41
2023-03-16T10:38:56.168Z,103016.13
2023-03-16T10:41:28.828Z,103631.25
2023-03-16T10:43:59.827Z,103678.44
2023-03-16T10:46:29.143Z,103618.00
2023-03-16T10:49:01.564Z,103398.25
2023-03-16T10:51:33.707Z,104080.31
2023-03-16T10:54:11.341Z,103403.91
2023-03-16T10:56:40.376Z,103633.00
2023-03-16T10:59:17.232Z,103920.59
2023-03-16T11:01:50.015Z,103712.88
2023-03-16T11:04:20.474Z,103484.06
2023-03-16T11:06:54.900Z,103350.41
2023-03-16T11:09:26.262Z,103705.66
2023-03-16T11:11:54.060Z,103848.47
2023-03-16T11:14:26.075Z,103621.44
2023-03-16T11:17:02.315Z,103622.22
2023-03-16T11:19:33.075Z,103643.50
2023-03-16T11:22:05.195Z,103541.66
2023-03-16T11:24:45.524Z,103396.50
2023-03-16T11:27:21.622Z,103868.72
2023-03-16T11:29:58.685Z,104047.22
2023-03-16T11:32:31.182Z,104201.81
2023-03-16T11:34:59.213Z,104014.63
2023-03-16T11:37:40.922Z,103594.59
2023-03-16T11:40:21.564Z,103676.09
2023-03-16T11:43:02.818Z,104179.50
2023-03-16T11:45:35.283Z,103901.38
2023-03-16T11:48:20.473Z,103759.44
2023-03-16T11:50:58.732Z,103717.88
2023-03-16T11:53:44.005Z,103544.78
2023-03-16T11:56:18.536Z,103098.91
2023-03-16T11:59:02.554Z,102959.16
2023-03-16T12:01:59.868Z,103015.66
2023-03-16T12:04:45.095Z,102953.03
2023-03-16T12:07:34.338Z,102605.38
2023-03-16T12:10:18.799Z,102723.31
2023-03-16T12:12:58.356Z,103041.94
2023-03-16T12:15:36.094Z,103297.38
2023-03-16T12:18:11.528Z,103471.75
2023-03-16T12:20:45.775Z,103361.97
2023-03-16T12:23:22.578Z,103082.59
2023-03-16T12:25:53.504Z,102968.44
2023-03-16T12:28:26.412Z,102561.84
2023-03-16T12:31:09.352Z,102518.53
2023-03-16T12:34:09.566Z,102295.81
2023-03-16T12:36:54.065Z,102206.38
2023-03-16T12:39:33.641Z,102018.88
2023-03-16T12:42:16.922Z,102127.69
2023-03-16T12:44:48.982Z,102337.94
2023-03-16T12:47:28.362Z,102514.88
2023-03-16T12:50:04.168Z,102451.50
2023-03-16T12:52:41.794Z,102534.44
2023-03-16T12:55:15.214Z,102522.84
2023-03-16T12:57:46.442Z,102957.69
2023-03-16T13:00:16.291Z,102660.31
2023-03-16T13:02:51.134Z,102943.50
2023-03-16T13:05:28.764Z,103426.25
2023-03-16T13:08:07.074Z,103550.28
2023-03-16T13:10:34.822Z,103434.25
2023-03-16T13:13:13.008Z,103386.53
2023-03-16T13:15:41.027Z,103493.63
2023-03-16T13:18:24.070Z,103693.88
2023-03-16T13:20:58.193Z,103646.84
2023-03-16T13:23:29.049Z,103485.63
2023-03-16T13:26:15.372Z,103302.44
2023-03-16T13:28:51.335Z,103316.47
2023-03-16T13:31:27.037Z,102597.72
2023-03-16T13:34:00.388Z,102873.69
2023-03-16T13:36:30.183Z,102817.25
2023-03-16T13:39:05.124Z,102699.06
2023-03-16T13:41:33.220Z,103221.81
2023-03-16T13:44:05.464Z,103312.84
2023-03-16T13:46:33.242Z,103512.94
2023-03-16T13:49:02.448Z,103219.13
2023-03-16T13:51:33.131Z,103227.78
2023-03-16T13:54:06.312Z,103323.25
2023-03-16T13:56:35.112Z,103102.41
2023-03-16T13:59:04.390Z,103815.19
2023-03-16T14:01:33.676Z,103519.09
2023-03-16T14:04:08.469Z,103557.25
2023-03-16T14:06:37.882Z,103699.97
2023-03-16T14:09:08.151Z,103907.53
2023-03-16T14:11:36.058Z,103974.13
2023-03-16T14:14:15.947Z,103843.28
2023-03-16T14:16:44.757Z,103398.69
2023-03-16T14:19:19.234Z,103530.47
2023-03-16T14:21:47.479Z,103212.78
2023-03-16T14:24:25.401Z,103321.50
2023-03-16T14:26:53.271Z,103514.50
2023-03-16T14:29:26.697Z,103662.50
2023-03-16T14:31:55.441Z,103563.22
2023-03-16T14:34:29.980Z,103569.41
2023-03-16T14:37:09.417Z,103541.84
2023-03-16T14:39:37.551Z,103659.81
2023-03-16T14:42:06.950Z,103573.75
2023-03-16T14:44:39.661Z,102901.56
2023-03-16T14:47:08.329Z,102941.19
2023-03-16T14:49:38.083Z,103170.91
2023-03-16T14:52:09.712Z,103021.72
2023-03-16T14:54:38.167Z,103090.34
2023-03-16T14:57:06.885Z,103154.00
2023-03-16T14:59:36.487Z,103062.88
2023-03-16T15:02:08.481Z,102740.69
2023-03-16T15:04:38.004Z,102744.19
2023-03-16T15:07:21.690Z,102278.22
2023-03-16T15:09:51.711Z,101901.16
2023-03-16T15:12:21.213Z,102070.59
2023-03-16T15:15:08.042Z,101871.94
2023-03-16T15:17:36.522Z,101525.81
2023-03-16T15:20:05.341Z,101212.34
2023-03-16T15:22:37.209Z,100586.53
2023-03-16T15:25:20.492Z,100149.81
2023-03-16T15:27:49.008Z,99890.28
2023-03-16T15:30:20.682Z,99416.41
2023-03-16T15:32:48.774Z,99215.91
2023-03-16T15:35:17.190Z,99120.97
2023-03-16T15:37:46.204Z,99088.06
2023-03-16T15:40:19.724Z,98967.84
2023-03-16T15:42:47.654Z,98870.28
2023-03-16T15:45:20.705Z,98673.94
2023-03-16T15:47:49.731Z,98506.03
2023-03-16T15:50:20.885Z,98377.25
2023-03-16T15:53:39.773Z,98233.75
2023-03-16T15:56:12.744Z,98090.53
2023-03-16T15:58:43.673Z,97969.34
2023-03-16T16:01:21.371Z,97842.72
2023-03-16T16:03:50.245Z,97756.03
2023-03-16T16:06:18.381Z,97722.53
2023-03-16T16:08:46.367Z,97594.16
2023-03-16T16:11:17.982Z,97531.78
2023-03-16T16:13:46.465Z,97400.09
2023-03-16T16:16:18.021Z,97320.53
2023-03-16T16:18:46.712Z,97227.78
2023-03-16T16:21:18.121Z,97192.44
2023-03-16T16:23:46.506Z,97154.94
2023-03-16T16:26:27.886Z,97115.75
2023-03-16T16:28:59.650Z,97068.75
2023-03-16T16:31:31.381Z,97032.22
2023-03-16T16:33:59.777Z,97006.56
2023-03-16T16:36:32.374Z,96970.75
2023-03-16T16:39:00.613Z,96882.59
2023-03-16T16:41:30.248Z,96831.09
2023-03-16T16:43:59.239Z,96767.22
2023-03-16T16:46:31.525Z,96708.34
2023-03-16T16:49:01.791Z,96659.09
2023-03-16T16:51:30.797Z,96589.25
2023-03-16T16:54:00.319Z,96544.44
2023-03-16T16:56:30.751Z,96497.47
2023-03-16T16:59:00.450Z,96428.47
2023-03-16T17:01:32.984Z,96363.16
2023-03-16T17:04:01.915Z,96335.13
2023-03-16T17:06:30.514Z,96309.06
2023-03-16T17:08:58.349Z,96246.22
2023-03-16T17:11:29.169Z,96202.06
2023-03-16T17:13:59.693Z,96163.28
2023-03-16T17:16:31.545Z,96115.38
2023-03-16T17:19:00.278Z,96048.69
2023-03-16T17:21:31.374Z,96068.00
2023-03-16T17:24:01.575Z,96038.25
2023-03-16T17:26:31.570Z,96004.56
2023-03-16T17:29:02.420Z,95974.84
2023-03-16T17:31:35.230Z,95941.69
2023-03-16T17:34:07.608Z,95919.50
2023-03-16T17:36:35.357Z,95915.38
2023-03-16T17:39:03.318Z,95901.00
2023-03-16T17:41:33.174Z,95851.38
2023-03-16T17:44:06.299Z,95804.03
2023-03-16T17:46:35.521Z,95715.97
2023-03-16T17:49:03.291Z,95673.69
2023-03-16T17:51:32.353Z,95628.72
2023-03-16T17:54:01.521Z,95597.56
2023-03-16T17:56:30.168Z,95590.88
2023-03-16T17:58:58.391Z,95546.75
2023-03-16T18:01:30.244Z,95506.34
2023-03-16T18:03:59.479Z,95442.81
2023-03-16T18:06:29.782Z,95400.00
2023-03-16T18:08:58.012Z,95356.88
2023-03-16T18:11:31.924Z,95314.72
2023-03-16T18:13:59.848Z,95280.38
2023-03-16T18:16:28.681Z,95261.53
2023-03-16T18:19:00.730Z,95204.31
2023-03-16T18:21:29.976Z,95157.94
2023-03-16T18:23:58.004Z,95148.03
2023-03-16T18:26:27.582Z,95126.59
2023-03-16T18:28:55.582Z,95114.09
2023-03-16T18:31:26.405Z,95126.09
2023-03-16T18:33:57.304Z,95116.69
2023-03-16T18:36:30.004Z,95074.63
2023-03-16T18:38:59.865Z,95047.47
2023-03-16T18:41:29.344Z,95015.47
2023-03-16T18:44:00.905Z,95003.13
2023-03-16T18:46:30.799Z,94969.38
2023-03-16T18:49:02.081Z,94972.63
2023-03-16T18:51:32.053Z,94965.81
2023-03-16T18:53:59.932Z,94928.78
2023-03-16T18:56:29.215Z,94900.88
2023-03-16T18:58:57.937Z,94868.44
2023-03-16T19:01:28.984Z,94852.38
2023-03-16T19:03:58.345Z,94871.03
2023-03-16T19:06:29.757Z,94886.75
2023-03-16T19:09:04.028Z,94877.50
2023-03-16T19:11:33.343Z,94846.22
2023-03-16T19:14:01.385Z,94832.88
2023-03-16T19:16:29.300Z,94820.06
2023-03-16T19:18:57.315Z,94813.59
2023-03-16T19:21:25.093Z,94814.72
2023-03-16T19:23:58.373Z,94805.00
2023-03-16T19:26:27.705Z,94811.81
2023-03-16T19:28:55.681Z,94834.50
2023-03-16T19:31:26.668Z,94848.00
2023-03-16T19:33:56.774Z,94862.28
2023-03-16T19:36:26.767Z,94847.69
2023-03-16T19:38:54.794Z,94873.31
2023-03-16T19:41:26.843Z,94877.84
2023-03-16T19:43:57.837Z,94887.41
2023-03-16T19:46:27.193Z,94890.81
2023-03-16T19:48:55.486Z,94885.47
2023-03-16T19:51:25.410Z,94875.41
2023-03-16T19:53:53.483Z,94904.94
2023-03-16T19:56:26.194Z,94927.50
2023-03-16T19:58:56.237Z,94931.06
2023-03-16T20:01:30.433Z,94941.81
2023-03-16T20:04:00.107Z,94962.91
2023-03-16T20:06:28.119Z,94964.69
2023-03-16T20:08:55.933Z,94962.09
2023-03-16T20:11:28.377Z,94946.84
2023-03-16T20:13:59.161Z,94943.59
2023-03-16T20:16:29.091Z,94909.66
2023-03-16T20:18:58.906Z,94920.84
2023-03-16T20:21:27.496Z,94909.81
2023-03-16T20:23:55.542Z,94900.56
2023-03-16T20:26:25.373Z,94900.56
2023-03-16T20:28:53.240Z,94893.75
2023-03-16T20:31:24.571Z,94891.16
2023-03-16T20:33:53.955Z,94889.53
2023-03-16T20:36:23.272Z,94885.47
2023-03-16T20:38:51.784Z,94860.81
2023-03-16T20:41:25.529Z,94882.06
2023-03-16T20:43:54.493Z,94935.63
2023-03-16T20:46:26.471Z,94952.53
2023-03-16T20:48:54.614Z,94932.41
2023-03-16T20:51:23.327Z,94884.97
2023-03-16T20:53:51.635Z,94870.06
2023-03-16T20:56:21.614Z,94855.13
2023-03-16T20:58:51.065Z,94836.34
2023-03-16T21:01:21.729Z,94828.22
2023-03-16T21:03:55.759Z,94821.69
2023-03-16T21:06:25.597Z,94855.94
2023-03-16T21:08:56.032Z,94848.34
2023-03-16T21:11:33.301Z,94911.13
2023-03-16T21:14:01.788Z,94913.72
2023-03-16T21:16:30.975Z,94906.41
2023-03-16T21:19:00.566Z,94879.31
2023-03-16T21:21:28.915Z,94883.53
2023-03-16T21:23:57.001Z,94926.69
2023-03-16T21:26:28.603Z,94930.59
2023-03-16T21:29:00.529Z,94928.16
2023-03-16T21:31:30.018Z,94917.13
2023-03-16T21:33:58.236Z,94905.91
2023-03-16T21:36:27.573Z,94885.00
2023-03-16T21:38:57.240Z,94912.91
2023-03-16T21:41:25.677Z,94927.19
2023-03-16T21:43:54.504Z,94906.25
2023-03-16T21:46:24.265Z,94898.63
2023-03-16T21:48:55.110Z,94913.88
2023-03-16T21:51:25.417Z,94899.09
2023-03-16T21:53:55.217Z,94905.09
2023-03-16T21:56:25.923Z,94901.88
2023-03-16T21:58:54.864Z,94901.22
2023-03-16T22:01:25.410Z,94873.31
2023-03-16T22:03:58.412Z,94838.94
2023-03-16T22:06:27.953Z,94811.16
2023-03-16T22:08:59.606Z,94769.81
2023-03-16T22:11:29.238Z,94747.63
2023-03-16T22:13:58.908Z,94747.44
2023-03-16T22:16:29.991Z,94735.47
2023-03-16T22:18:58.838Z,94734.81
2023-03-16T22:21:32.281Z,94725.56
2023-03-16T22:24:02.417Z,94736.28
2023-03-16T22:26:30.867Z,94783.44
2023-03-16T22:29:00.893Z,94789.44
2023-03-16T22:31:33.723Z,94784.25
2023-03-16T22:34:02.773Z,94787.34
2023-03-16T22:36:32.353Z,94804.50
2023-03-16T22:39:03.959Z,94784.09
2023-03-16T22:41:32.185Z,94773.22
2023-03-16T22:44:00.168Z,94765.59
2023-03-16T22:46:29.647Z,94758.81
2023-03-16T22:48:58.611Z,94758.97
2023-03-16T22:51:30.922Z,94759.78
2023-03-16T22:54:03.419Z,94747.13
2023-03-16T22:56:31.903Z,94757.19
2023-03-16T22:59:02.792Z,94759.78
2023-03-16T23:01:34.714Z,94753.94
2023-03-16T23:04:03.385Z,94748.75
2023-03-16T23:06:32.550Z,94741.28
2023-03-16T23:09:02.390Z,94740.47
2023-03-16T23:11:32.919Z,94753.13
2023-03-16T23:14:01.231Z,94746.00
2023-03-16T23:16:32.224Z,94752.97
2023-03-16T23:19:00.491Z,94756.38
2023-03-16T23:21:31.005Z,94750.38
2023-03-16T23:24:03.931Z,94754.59
2023-03-16T23:26:33.836Z,94760.75
2023-03-16T23:29:01.790Z,94747.13
2023-03-16T23:31:30.870Z,94759.78
2023-03-16T23:33:58.834Z,94764.63
2023-03-16T23:36:27.347Z,94778.25
2023-03-16T23:38:55.210Z,94792.53
2023-03-16T23:41:24.986Z,94819.47
2023-03-16T23:43:55.232Z,94820.78
2023-03-16T23:46:25.710Z,94802.91
2023-03-16T23:48:56.503Z,94799.00
2023-03-16T23:51:28.312Z,94794.16
2023-03-16T23:53:57.485Z,94764.63
2023-03-16T23:56:27.035Z,94722.47
2023-03-16T23:58:56.284Z,94722.16
